Sedov — UELO — position and weather

sailwx.info

Track history (hours):
 
Tides and Currents Weather Stations Pressure Air Temp Water Temp Dewpoint Dewpoint Depression Visibility Wind Speed Wind Dir Waves Ship Positions

Sedov (Russia)

Last reported at 2017-Jun-28 04:58 UTC. Time now 2017-Jun-29 05:27 UTC.
Position N 54°52' E 005°35'.

Length 118 m; draft 6.1 m.

Type: Sailing vessel. MMSI: 273510000.

Date/timePositionNaut miles runAvg speedWind from/ knotsBaromVisibWave heightAir tempDewpointWater temp
2017-Jun-28 04:58N 54°52' E 005°35'2 4.3
2017-Jun-28 04:30N 54°50' E 005°35'2 4.2
2017-Jun-28 03:59N 54°48' E 005°35'2 4.2
2017-Jun-28 03:29N 54°46' E 005°35'2 4.2
2017-Jun-28 03:00N 54°43' E 005°35'2 4.4
2017-Jun-28 02:29N 54°41' E 005°34'2 4.1
2017-Jun-28 01:57N 54°39' E 005°34'2 3.4
2017-Jun-28 01:30N 54°38' E 005°33'2 3.9
2017-Jun-28 00:59N 54°36' E 005°31'72 4.7
2017-Jun-27 09:30N 53°29' E 004°46'3 5.8
2017-Jun-27 09:00N 53°26' E 004°45'3 6.2
2017-Jun-27 08:30N 53°23' E 004°43'3 6.7
2017-Jun-27 08:00N 53°20' E 004°41'4 7.1
2017-Jun-27 07:30N 53°17' E 004°38'4 7.2
2017-Jun-27 07:00N 53°14' E 004°35'4 7.3
2017-Jun-27 06:31N 53°10' E 004°32'4 7.2
2017-Jun-27 06:00N 53°07' E 004°30'4 7.3
2017-Jun-27 05:30N 53°04' E 004°27'4 7.2
2017-Jun-27 05:00N 53°00' E 004°26'3 6.6
2017-Jun-27 04:30N 52°57' E 004°27'3 7.0
2017-Jun-27 04:01N 52°55' E 004°31'4 7.1
2017-Jun-27 03:31N 52°53' E 004°36'3 6.2
2017-Jun-27 03:00N 52°55' E 004°40'4 8.2
2017-Jun-27 02:30N 52°58' E 004°44'4 8.6
2017-Jun-27 02:00N 53°01' E 004°50'0 0.6
2017-Jun-27 01:28N 53°01' E 004°50'0 0.0
2017-Jun-27 00:58N 53°01' E 004°50'0 0.0
2017-Jun-27 00:28N 53°01' E 004°50'0 0.0
2017-Jun-26 23:58N 53°01' E 004°50'0 0.0
2017-Jun-26 23:28N 53°01' E 004°50'0 0.0
2017-Jun-26 22:52N 53°01' E 004°50'0 0.0
2017-Jun-26 22:28N 53°01' E 004°50'0 0.1
2017-Jun-26 21:58N 53°01' E 004°50'0 0.1
2017-Jun-26 21:28N 53°01' E 004°50'0 0.0
2017-Jun-26 20:58N 53°01' E 004°50'0 0.0
2017-Jun-26 20:28N 53°01' E 004°50'0 0.0
2017-Jun-26 19:58N 53°01' E 004°50'0 0.0
2017-Jun-26 19:28N 53°01' E 004°50'0 0.0
2017-Jun-26 18:58N 53°01' E 004°50'0 0.0
2017-Jun-26 18:28N 53°01' E 004°50'0 0.0
2017-Jun-26 17:58N 53°01' E 004°50'0 0.0
2017-Jun-26 17:28N 53°01' E 004°50'0 0.0
2017-Jun-26 16:58N 53°01' E 004°50'0 0.1
2017-Jun-26 16:28N 53°01' E 004°50'0 0.1
2017-Jun-26 15:58N 53°01' E 004°50'0 0.0
2017-Jun-26 15:28N 53°01' E 004°50'0 0.0
2017-Jun-26 14:58N 53°01' E 004°50'0 0.0
2017-Jun-26 14:28N 53°01' E 004°50'0 0.0
2017-Jun-26 13:28N 53°01' E 004°50'0 0.0
2017-Jun-26 12:52N 53°01' E 004°50'0 0.1
2017-Jun-26 12:28N 53°01' E 004°50'0 0.0
2017-Jun-26 11:58N 53°01' E 004°50'0 0.0
2017-Jun-26 11:28N 53°01' E 004°50'0 0.0
2017-Jun-26 10:58N 53°01' E 004°50'0 0.0
2017-Jun-26 10:28N 53°01' E 004°50'0 0.1
2017-Jun-26 09:58N 53°01' E 004°50'0 0.1
2017-Jun-26 09:28N 53°01' E 004°50'0 0.1
2017-Jun-26 09:00N 53°01' E 004°50'0 0.7
2017-Jun-26 08:30N 53°02' E 004°51'3 5.2
2017-Jun-26 08:00N 52°60' E 004°48'4 8.1
2017-Jun-26 07:30N 52°57' E 004°42'3 6.2
2017-Jun-26 07:00N 52°55' E 004°40'3 5.3
2017-Jun-26 06:30N 52°53' E 004°36'2 4.1
2017-Jun-26 06:00N 52°52' E 004°34'1 2.9
2017-Jun-26 05:30N 52°50' E 004°32'4 7.2
2017-Jun-26 05:00N 52°49' E 004°27'4 7.2
2017-Jun-26 04:29N 52°47' E 004°22'3 7.1
2017-Jun-26 04:00N 52°44' E 004°18'4 6.9
2017-Jun-26 03:30N 52°43' E 004°12'3 6.4
2017-Jun-26 03:00N 52°44' E 004°07'3 6.2
2017-Jun-26 02:30N 52°46' E 004°04'3 6.3
2017-Jun-26 02:00N 52°48' E 003°60'3 5.7
2017-Jun-26 01:30N 52°51' E 003°58'3 6.4
2017-Jun-26 00:59N 52°54' E 003°59'3 5.9
2017-Jun-26 00:25N 52°57' E 004°01'2 5.2
2017-Jun-25 23:58N 52°59' E 004°04'3 5.5
2017-Jun-25 23:28N 53°01' E 004°07'4 5.7
2017-Jun-25 22:50N 53°03' E 004°12'2 5.8
2017-Jun-25 22:30N 53°04' E 004°14'4 5.7
2017-Jun-25 21:43N 53°07' E 004°20'2 5.8
2017-Jun-25 21:21N 53°09' E 004°22'2 5.9
2017-Jun-25 20:56N 53°10' E 004°25'3 5.8
2017-Jun-25 20:30N 53°13' E 004°27'3 5.6
2017-Jun-25 20:00N 53°15' E 004°28'3 5.3
2017-Jun-25 19:30N 53°18' E 004°30'2 4.9
2017-Jun-25 19:00N 53°20' E 004°31'2 4.6
2017-Jun-25 18:30N 53°22' E 004°32'2 4.5
2017-Jun-25 18:00N 53°24' E 004°33'2 4.1
2017-Jun-25 17:30N 53°27' E 004°34'2 3.6
2017-Jun-25 17:00N 53°28' E 004°35'2 4.5
2017-Jun-25 16:30N 53°30' E 004°35'2 5.0
2017-Jun-25 16:00N 53°33' E 004°36'3 5.4
2017-Jun-25 15:29N 53°36' E 004°37'3 6.0
2017-Jun-25 15:00N 53°38' E 004°38'6 6.2
2017-Jun-25 13:59N 53°44' E 004°42'3 6.0
2017-Jun-25 13:29N 53°47' E 004°44'3 6.4
2017-Jun-25 13:00N 53°50' E 004°46'101 4.4
2017-Jun-24 14:00N 55°20' E 006°07'2 3.5
2017-Jun-24 13:29N 55°21' E 006°09'2 3.7
2017-Jun-24 13:00N 55°23' E 006°11'1 2.6
2017-Jun-24 12:28N 55°24' E 006°13'1 2.8
2017-Jun-24 11:57N 55°25' E 006°15'1 2.9
2017-Jun-24 11:30N 55°25' E 006°17'10 3.4
2017-Jun-24 08:25N 55°33' E 006°29'3 3.7
2017-Jun-24 07:38N 55°35' E 006°32'129 4.5
2017-Jun-23 02:57N 57°26' E 008°34'5 6.2
2017-Jun-23 02:11N 57°28' E 008°42'2 6.4
2017-Jun-23 01:55N 57°28' E 008°44'3 6.4
2017-Jun-23 01:29N 57°30' E 008°49'14 6.5
2017-Jun-22 23:19N 57°36' E 009°13'2 6.6
2017-Jun-22 23:00N 57°36' E 009°16'3 6.6
2017-Jun-22 22:30N 57°38' E 009°22'3 6.6
2017-Jun-22 22:00N 57°39' E 009°27'3 6.8
2017-Jun-22 21:30N 57°41' E 009°33'4 6.9
2017-Jun-22 21:00N 57°42' E 009°39'3 6.8
2017-Jun-22 20:29N 57°43' E 009°45'3 7.1
2017-Jun-22 19:59N 57°44' E 009°52'4 7.2
2017-Jun-22 19:30N 57°44' E 009°58'5 7.1
2017-Jun-22 18:49N 57°45' E 010°07'9 7.2
2017-Jun-22 17:34N 57°47' E 010°23'2 7.0
2017-Jun-22 17:21N 57°48' E 010°26'3 6.9
2017-Jun-22 16:59N 57°48' E 010°31'3 6.5
2017-Jun-22 16:28N 57°48' E 010°37'3 6.2
2017-Jun-22 16:00N 57°48' E 010°43'3 5.4
2017-Jun-22 15:30N 57°46' E 010°46'3 5.6
2017-Jun-22 14:59N 57°44' E 010°45'3 6.8
2017-Jun-22 14:29N 57°42' E 010°40'3 2.8
2017-Jun-22 13:28N 57°40' E 010°35'0 0.0
2017-Jun-22 12:49N 57°40' E 010°35'0 0.0
2017-Jun-22 10:10N 57°40' E 010°35'0 0.0
2017-Jun-22 09:43N 57°40' E 010°35'0 0.0
2017-Jun-22 09:16N 57°40' E 010°35'0 0.2
2017-Jun-22 08:48N 57°40' E 010°35'0 0.6
2017-Jun-22 08:30N 57°40' E 010°35'2 4.2
2017-Jun-22 08:00N 57°40' E 010°39'2 4.1
2017-Jun-22 07:30N 57°40' E 010°43'2 4.4
2017-Jun-22 07:00N 57°39' E 010°47'2 4.5
2017-Jun-22 06:29N 57°39' E 010°51'2 4.6
2017-Jun-22 06:00N 57°38' E 010°55'2 4.6
2017-Jun-22 05:29N 57°38' E 010°59'2 4.8
2017-Jun-22 05:00N 57°37' E 011°04'3 5.4
2017-Jun-22 04:30N 57°36' E 011°08'3 5.2
2017-Jun-22 04:00N 57°35' E 011°13'3 6.1
2017-Jun-22 03:30N 57°33' E 011°17'3 5.9
2017-Jun-22 03:00N 57°31' E 011°21'3 5.7
2017-Jun-22 02:29N 57°29' E 011°25'3 5.5
2017-Jun-22 02:00N 57°27' E 011°29'3 5.7
2017-Jun-22 01:30N 57°25' E 011°28'3 6.4
2017-Jun-22 01:00N 57°22' E 011°30'3 6.3
2017-Jun-22 00:30N 57°19' E 011°32'3 6.4
2017-Jun-21 23:59N 57°16' E 011°34'3 6.4
2017-Jun-21 23:29N 57°12' E 011°36'3 6.3
2017-Jun-21 23:01N 57°10' E 011°38'3 6.1
2017-Jun-21 22:30N 57°07' E 011°40'3 5.8
2017-Jun-21 21:58N 57°04' E 011°42'4 5.8
2017-Jun-21 21:21N 57°00' E 011°44'44 5.2
2017-Jun-21 12:57N 56°18' E 012°05'3 5.5
2017-Jun-21 12:30N 56°17' E 012°09'3 5.4
2017-Jun-21 12:00N 56°15' E 012°13'3 5.0
2017-Jun-21 11:29N 56°14' E 012°17'2 4.7
2017-Jun-21 11:00N 56°13' E 012°20'2 4.3
2017-Jun-21 10:30N 56°11' E 012°23'2 4.4
2017-Jun-21 10:00N 56°10' E 012°26'2 4.6
2017-Jun-21 09:30N 56°09' E 012°29'2 4.2
2017-Jun-21 09:00N 56°07' E 012°32'2 4.2
2017-Jun-21 08:31N 56°06' E 012°35'2 3.7
2017-Jun-21 08:00N 56°05' E 012°38'2 3.5
2017-Jun-21 07:29N 56°03' E 012°40'2 3.2
2017-Jun-21 07:00N 56°02' E 012°40'1 2.9
2017-Jun-21 06:30N 56°00' E 012°41'2 3.4
2017-Jun-21 06:01N 55°59' E 012°42'2 3.6
2017-Jun-21 05:30N 55°57' E 012°43'2 4.3
2017-Jun-21 05:00N 55°55' E 012°45'2 4.5
2017-Jun-21 04:30N 55°53' E 012°44'2 5.0
2017-Jun-21 04:00N 55°50' E 012°44'2 4.8
2017-Jun-21 03:30N 55°48' E 012°43'3 5.4
2017-Jun-21 03:00N 55°45' E 012°42'3 5.4
2017-Jun-21 02:30N 55°43' E 012°41'3 5.1
2017-Jun-21 02:00N 55°40' E 012°42'2 4.9
2017-Jun-21 01:30N 55°38' E 012°42'2 4.9
2017-Jun-21 01:00N 55°35' E 012°42'3 5.0
2017-Jun-21 00:30N 55°33' E 012°43'2 4.7
2017-Jun-21 00:00N 55°31' E 012°42'2 4.6
2017-Jun-20 23:30N 55°28' E 012°42'2 4.4
2017-Jun-20 23:00N 55°26' E 012°42'2 4.8
2017-Jun-20 22:30N 55°24' E 012°41'3 5.4
2017-Jun-20 22:00N 55°21' E 012°41'2 4.3
2017-Jun-20 21:29N 55°19' E 012°42'2 3.9
2017-Jun-20 20:59N 55°18' E 012°45'2 4.3
2017-Jun-20 20:30N 55°17' E 012°48'2 3.8
2017-Jun-20 20:00N 55°16' E 012°51'2 4.3
2017-Jun-20 19:31N 55°15' E 012°55'2 4.7
2017-Jun-20 18:59N 55°14' E 012°59'2 5.1
2017-Jun-20 18:30N 55°13' E 013°02'2 5.0
2017-Jun-20 18:00N 55°12' E 013°07'2 4.6
2017-Jun-20 17:30N 55°11' E 013°10'2 4.1
2017-Jun-20 17:00N 55°11' E 013°13'2 4.4
2017-Jun-20 16:29N 55°09' E 013°17'7 4.6
2017-Jun-20 14:56N 55°06' E 013°28'6 4.5
2017-Jun-20 13:30N 55°03' E 013°38'3 3.8
2017-Jun-20 12:41N 55°01' E 013°42'1 3.1
2017-Jun-20 12:28N 55°01' E 013°43'1 2.9
2017-Jun-20 12:00N 54°60' E 013°44'1 2.8
2017-Jun-20 11:31N 54°59' E 013°46'2 2.7
2017-Jun-20 10:56N 54°57' E 013°47'1 3.2
2017-Jun-20 10:30N 54°56' E 013°48'2 3.6
2017-Jun-20 09:55N 54°55' E 013°51'2 3.9
2017-Jun-20 09:28N 54°54' E 013°53'2 3.7
2017-Jun-20 08:59N 54°54' E 013°57'2 4.2
2017-Jun-20 08:30N 54°54' E 013°60'2 4.3
2017-Jun-20 08:00N 54°55' E 014°03'2 4.2
2017-Jun-20 07:30N 54°55' E 014°07'2 4.4
2017-Jun-20 07:01N 54°56' E 014°11'2 4.3
2017-Jun-20 06:30N 54°56' E 014°14'2 4.4
2017-Jun-20 06:00N 54°56' E 014°18'2 4.5
2017-Jun-20 05:31N 54°55' E 014°22'2 4.8
2017-Jun-20 04:59N 54°55' E 014°26'2 4.8
2017-Jun-20 04:30N 54°55' E 014°30'2 4.9
2017-Jun-20 04:00N 54°54' E 014°34'2 4.8
2017-Jun-20 03:30N 54°54' E 014°38'2 4.7
2017-Jun-20 03:00N 54°53' E 014°43'2 4.6
2017-Jun-20 02:31N 54°53' E 014°46'2 4.6
2017-Jun-20 02:00N 54°53' E 014°51'2 4.6
2017-Jun-20 01:30N 54°53' E 014°54'2 4.5
2017-Jun-20 00:59N 54°53' E 014°59'2 4.6
2017-Jun-20 00:30N 54°54' E 015°02'2 4.9
2017-Jun-20 00:00N 54°54' E 015°07'3 5.1
2017-Jun-19 23:30N 54°54' E 015°11'3 5.1
2017-Jun-19 23:00N 54°54' E 015°15'3 5.3
2017-Jun-19 22:30N 54°54' E 015°20'3 5.7
2017-Jun-19 22:00N 54°54' E 015°25'4 5.5
2017-Jun-19 21:18N 54°53' E 015°32'63 4.9
2017-Jun-19 08:16N 54°56' E 017°22'1 5.0
2017-Jun-19 08:00N 54°56' E 017°24'4 5.0
2017-Jun-19 07:15N 54°56' E 017°31'5 4.8
2017-Jun-19 06:08N 54°56' E 017°40'1 4.9
2017-Jun-19 06:00N 54°56' E 017°41'13 4.7
2017-Jun-19 03:12N 54°56' E 018°04'1 4.1
2017-Jun-19 02:54N 54°57' E 018°06'1 3.8
2017-Jun-19 02:30N 54°57' E 018°09'2 3.5
2017-Jun-19 01:58N 54°57' E 018°12'2 4.0
2017-Jun-19 01:30N 54°57' E 018°15'2 4.4
2017-Jun-19 01:00N 54°57' E 018°19'2 3.9
2017-Jun-19 00:30N 54°57' E 018°22'2 3.7
2017-Jun-19 00:00N 54°57' E 018°26'2 3.6
2017-Jun-18 23:30N 54°57' E 018°29'2 3.7
2017-Jun-18 23:00N 54°57' E 018°32'2 3.5
2017-Jun-18 22:30N 54°57' E 018°35'2 3.1
2017-Jun-18 22:00N 54°57' E 018°38'2 3.1
2017-Jun-18 21:30N 54°57' E 018°40'2 3.1
2017-Jun-18 21:00N 54°56' E 018°43'2 3.5
2017-Jun-18 20:30N 54°56' E 018°46'2 3.6
2017-Jun-18 20:00N 54°55' E 018°49'2 3.7
2017-Jun-18 19:31N 54°55' E 018°52'2 3.6
2017-Jun-18 19:00N 54°54' E 018°55'2 3.3
2017-Jun-18 18:30N 54°54' E 018°58'2 3.3
2017-Jun-18 18:00N 54°53' E 019°01'2 3.2
2017-Jun-18 17:30N 54°53' E 019°03'1 2.9
2017-Jun-18 17:00N 54°52' E 019°06'2 3.2
2017-Jun-18 16:29N 54°52' E 019°08'2 3.3
2017-Jun-18 16:00N 54°52' E 019°11'2 3.2
2017-Jun-18 15:31N 54°51' E 019°14'2 3.3
2017-Jun-18 15:01N 54°51' E 019°17'3 2.7
2017-Jun-18 14:00N 54°50' E 019°21'2 3.4
2017-Jun-18 13:30N 54°49' E 019°23'2 4.0
2017-Jun-18 12:59N 54°48' E 019°26'2 5.0
2017-Jun-18 12:30N 54°47' E 019°30'3 5.8
2017-Jun-18 12:00N 54°45' E 019°35'3 5.9
2017-Jun-18 11:30N 54°44' E 019°39'3 5.5
2017-Jun-18 11:01N 54°42' E 019°43'3 5.5
2017-Jun-18 10:30N 54°41' E 019°47'3 5.9
2017-Jun-18 10:00N 54°39' E 019°51'3 5.3
2017-Jun-18 09:24N 54°38' E 019°57'  
Track history (hours):
 
Tides and Currents Weather Stations Pressure Air Temp Water Temp Dewpoint Dewpoint Depression Visibility Wind Speed Wind Dir Waves Ship Positions

Sedov (Russia)

Last reported at 2017-Jun-28 04:58 UTC. Time now 2017-Jun-29 05:27 UTC.
Position N 54°52' E 005°35'.

Length 118 m; draft 6.1 m.

Type: Sailing vessel. MMSI: 273510000.

Date/timePositionNaut miles runAvg speedWind from/ knotsBaromVisibWave heightAir tempDewpointWater temp
2017-Jun-28 04:58N 54°52' E 005°35'2 4.3
2017-Jun-28 04:30N 54°50' E 005°35'2 4.2
2017-Jun-28 03:59N 54°48' E 005°35'2 4.2
2017-Jun-28 03:29N 54°46' E 005°35'2 4.2
2017-Jun-28 03:00N 54°43' E 005°35'2 4.4
2017-Jun-28 02:29N 54°41' E 005°34'2 4.1
2017-Jun-28 01:57N 54°39' E 005°34'2 3.4
2017-Jun-28 01:30N 54°38' E 005°33'2 3.9
2017-Jun-28 00:59N 54°36' E 005°31'72 4.7
2017-Jun-27 09:30N 53°29' E 004°46'3 5.8
2017-Jun-27 09:00N 53°26' E 004°45'3 6.2
2017-Jun-27 08:30N 53°23' E 004°43'3 6.7
2017-Jun-27 08:00N 53°20' E 004°41'4 7.1
2017-Jun-27 07:30N 53°17' E 004°38'4 7.2
2017-Jun-27 07:00N 53°14' E 004°35'4 7.3
2017-Jun-27 06:31N 53°10' E 004°32'4 7.2
2017-Jun-27 06:00N 53°07' E 004°30'4 7.3
2017-Jun-27 05:30N 53°04' E 004°27'4 7.2
2017-Jun-27 05:00N 53°00' E 004°26'3 6.6
2017-Jun-27 04:30N 52°57' E 004°27'3 7.0
2017-Jun-27 04:01N 52°55' E 004°31'4 7.1
2017-Jun-27 03:31N 52°53' E 004°36'3 6.2
2017-Jun-27 03:00N 52°55' E 004°40'4 8.2
2017-Jun-27 02:30N 52°58' E 004°44'4 8.6
2017-Jun-27 02:00N 53°01' E 004°50'0 0.6
2017-Jun-27 01:28N 53°01' E 004°50'0 0.0
2017-Jun-27 00:58N 53°01' E 004°50'0 0.0
2017-Jun-27 00:28N 53°01' E 004°50'0 0.0
2017-Jun-26 23:58N 53°01' E 004°50'0 0.0
2017-Jun-26 23:28N 53°01' E 004°50'0 0.0
2017-Jun-26 22:52N 53°01' E 004°50'0 0.0
2017-Jun-26 22:28N 53°01' E 004°50'0 0.1
2017-Jun-26 21:58N 53°01' E 004°50'0 0.1
2017-Jun-26 21:28N 53°01' E 004°50'0 0.0
2017-Jun-26 20:58N 53°01' E 004°50'0 0.0
2017-Jun-26 20:28N 53°01' E 004°50'0 0.0
2017-Jun-26 19:58N 53°01' E 004°50'0 0.0
2017-Jun-26 19:28N 53°01' E 004°50'0 0.0
2017-Jun-26 18:58N 53°01' E 004°50'0 0.0
2017-Jun-26 18:28N 53°01' E 004°50'0 0.0
2017-Jun-26 17:58N 53°01' E 004°50'0 0.0
2017-Jun-26 17:28N 53°01' E 004°50'0 0.0
2017-Jun-26 16:58N 53°01' E 004°50'0 0.1
2017-Jun-26 16:28N 53°01' E 004°50'0 0.1
2017-Jun-26 15:58N 53°01' E 004°50'0 0.0
2017-Jun-26 15:28N 53°01' E 004°50'0 0.0
2017-Jun-26 14:58N 53°01' E 004°50'0 0.0
2017-Jun-26 14:28N 53°01' E 004°50'0 0.0
2017-Jun-26 13:28N 53°01' E 004°50'0 0.0
2017-Jun-26 12:52N 53°01' E 004°50'0 0.1
2017-Jun-26 12:28N 53°01' E 004°50'0 0.0
2017-Jun-26 11:58N 53°01' E 004°50'0 0.0
2017-Jun-26 11:28N 53°01' E 004°50'0 0.0
2017-Jun-26 10:58N 53°01' E 004°50'0 0.0
2017-Jun-26 10:28N 53°01' E 004°50'0 0.1
2017-Jun-26 09:58N 53°01' E 004°50'0 0.1
2017-Jun-26 09:28N 53°01' E 004°50'0 0.1
2017-Jun-26 09:00N 53°01' E 004°50'0 0.7
2017-Jun-26 08:30N 53°02' E 004°51'3 5.2
2017-Jun-26 08:00N 52°60' E 004°48'4 8.1
2017-Jun-26 07:30N 52°57' E 004°42'3 6.2
2017-Jun-26 07:00N 52°55' E 004°40'3 5.3
2017-Jun-26 06:30N 52°53' E 004°36'2 4.1
2017-Jun-26 06:00N 52°52' E 004°34'1 2.9
2017-Jun-26 05:30N 52°50' E 004°32'4 7.2
2017-Jun-26 05:00N 52°49' E 004°27'4 7.2
2017-Jun-26 04:29N 52°47' E 004°22'3 7.1
2017-Jun-26 04:00N 52°44' E 004°18'4 6.9
2017-Jun-26 03:30N 52°43' E 004°12'3 6.4
2017-Jun-26 03:00N 52°44' E 004°07'3 6.2
2017-Jun-26 02:30N 52°46' E 004°04'3 6.3
2017-Jun-26 02:00N 52°48' E 003°60'3 5.7
2017-Jun-26 01:30N 52°51' E 003°58'3 6.4
2017-Jun-26 00:59N 52°54' E 003°59'3 5.9
2017-Jun-26 00:25N 52°57' E 004°01'2 5.2
2017-Jun-25 23:58N 52°59' E 004°04'3 5.5
2017-Jun-25 23:28N 53°01' E 004°07'4 5.7
2017-Jun-25 22:50N 53°03' E 004°12'2 5.8
2017-Jun-25 22:30N 53°04' E 004°14'4 5.7
2017-Jun-25 21:43N 53°07' E 004°20'2 5.8
2017-Jun-25 21:21N 53°09' E 004°22'2 5.9
2017-Jun-25 20:56N 53°10' E 004°25'3 5.8
2017-Jun-25 20:30N 53°13' E 004°27'3 5.6
2017-Jun-25 20:00N 53°15' E 004°28'3 5.3
2017-Jun-25 19:30N 53°18' E 004°30'2 4.9
2017-Jun-25 19:00N 53°20' E 004°31'2 4.6
2017-Jun-25 18:30N 53°22' E 004°32'2 4.5
2017-Jun-25 18:00N 53°24' E 004°33'2 4.1
2017-Jun-25 17:30N 53°27' E 004°34'2 3.6
2017-Jun-25 17:00N 53°28' E 004°35'2 4.5
2017-Jun-25 16:30N 53°30' E 004°35'2 5.0
2017-Jun-25 16:00N 53°33' E 004°36'3 5.4
2017-Jun-25 15:29N 53°36' E 004°37'3 6.0
2017-Jun-25 15:00N 53°38' E 004°38'6 6.2
2017-Jun-25 13:59N 53°44' E 004°42'3 6.0
2017-Jun-25 13:29N 53°47' E 004°44'3 6.4
2017-Jun-25 13:00N 53°50' E 004°46'101 4.4
2017-Jun-24 14:00N 55°20' E 006°07'2 3.5
2017-Jun-24 13:29N 55°21' E 006°09'2 3.7
2017-Jun-24 13:00N 55°23' E 006°11'1 2.6
2017-Jun-24 12:28N 55°24' E 006°13'1 2.8
2017-Jun-24 11:57N 55°25' E 006°15'1 2.9
2017-Jun-24 11:30N 55°25' E 006°17'10 3.4
2017-Jun-24 08:25N 55°33' E 006°29'3 3.7
2017-Jun-24 07:38N 55°35' E 006°32'129 4.5
2017-Jun-23 02:57N 57°26' E 008°34'5 6.2
2017-Jun-23 02:11N 57°28' E 008°42'2 6.4
2017-Jun-23 01:55N 57°28' E 008°44'3 6.4
2017-Jun-23 01:29N 57°30' E 008°49'14 6.5
2017-Jun-22 23:19N 57°36' E 009°13'2 6.6
2017-Jun-22 23:00N 57°36' E 009°16'3 6.6
2017-Jun-22 22:30N 57°38' E 009°22'3 6.6
2017-Jun-22 22:00N 57°39' E 009°27'3 6.8
2017-Jun-22 21:30N 57°41' E 009°33'4 6.9
2017-Jun-22 21:00N 57°42' E 009°39'3 6.8
2017-Jun-22 20:29N 57°43' E 009°45'3 7.1
2017-Jun-22 19:59N 57°44' E 009°52'4 7.2
2017-Jun-22 19:30N 57°44' E 009°58'5 7.1
2017-Jun-22 18:49N 57°45' E 010°07'9 7.2
2017-Jun-22 17:34N 57°47' E 010°23'2 7.0
2017-Jun-22 17:21N 57°48' E 010°26'3 6.9
2017-Jun-22 16:59N 57°48' E 010°31'3 6.5
2017-Jun-22 16:28N 57°48' E 010°37'3 6.2
2017-Jun-22 16:00N 57°48' E 010°43'3 5.4
2017-Jun-22 15:30N 57°46' E 010°46'3 5.6
2017-Jun-22 14:59N 57°44' E 010°45'3 6.8
2017-Jun-22 14:29N 57°42' E 010°40'3 2.8
2017-Jun-22 13:28N 57°40' E 010°35'0 0.0
2017-Jun-22 12:49N 57°40' E 010°35'0 0.0
2017-Jun-22 10:10N 57°40' E 010°35'0 0.0
2017-Jun-22 09:43N 57°40' E 010°35'0 0.0
2017-Jun-22 09:16N 57°40' E 010°35'0 0.2
2017-Jun-22 08:48N 57°40' E 010°35'0 0.6
2017-Jun-22 08:30N 57°40' E 010°35'2 4.2
2017-Jun-22 08:00N 57°40' E 010°39'2 4.1
2017-Jun-22 07:30N 57°40' E 010°43'2 4.4
2017-Jun-22 07:00N 57°39' E 010°47'2 4.5
2017-Jun-22 06:29N 57°39' E 010°51'2 4.6
2017-Jun-22 06:00N 57°38' E 010°55'2 4.6
2017-Jun-22 05:29N 57°38' E 010°59'2 4.8
2017-Jun-22 05:00N 57°37' E 011°04'3 5.4
2017-Jun-22 04:30N 57°36' E 011°08'3 5.2
2017-Jun-22 04:00N 57°35' E 011°13'3 6.1
2017-Jun-22 03:30N 57°33' E 011°17'3 5.9
2017-Jun-22 03:00N 57°31' E 011°21'3 5.7
2017-Jun-22 02:29N 57°29' E 011°25'3 5.5
2017-Jun-22 02:00N 57°27' E 011°29'3 5.7
2017-Jun-22 01:30N 57°25' E 011°28'3 6.4
2017-Jun-22 01:00N 57°22' E 011°30'3 6.3
2017-Jun-22 00:30N 57°19' E 011°32'3 6.4
2017-Jun-21 23:59N 57°16' E 011°34'3 6.4
2017-Jun-21 23:29N 57°12' E 011°36'3 6.3
2017-Jun-21 23:01N 57°10' E 011°38'3 6.1
2017-Jun-21 22:30N 57°07' E 011°40'3 5.8
2017-Jun-21 21:58N 57°04' E 011°42'4 5.8
2017-Jun-21 21:21N 57°00' E 011°44'44 5.2
2017-Jun-21 12:57N 56°18' E 012°05'3 5.5
2017-Jun-21 12:30N 56°17' E 012°09'3 5.4
2017-Jun-21 12:00N 56°15' E 012°13'3 5.0
2017-Jun-21 11:29N 56°14' E 012°17'2 4.7
2017-Jun-21 11:00N 56°13' E 012°20'2 4.3
2017-Jun-21 10:30N 56°11' E 012°23'2 4.4
2017-Jun-21 10:00N 56°10' E 012°26'2 4.6
2017-Jun-21 09:30N 56°09' E 012°29'2 4.2
2017-Jun-21 09:00N 56°07' E 012°32'2 4.2
2017-Jun-21 08:31N 56°06' E 012°35'2 3.7
2017-Jun-21 08:00N 56°05' E 012°38'2 3.5
2017-Jun-21 07:29N 56°03' E 012°40'2 3.2
2017-Jun-21 07:00N 56°02' E 012°40'1 2.9
2017-Jun-21 06:30N 56°00' E 012°41'2 3.4
2017-Jun-21 06:01N 55°59' E 012°42'2 3.6
2017-Jun-21 05:30N 55°57' E 012°43'2 4.3
2017-Jun-21 05:00N 55°55' E 012°45'2 4.5
2017-Jun-21 04:30N 55°53' E 012°44'2 5.0
2017-Jun-21 04:00N 55°50' E 012°44'2 4.8
2017-Jun-21 03:30N 55°48' E 012°43'3 5.4
2017-Jun-21 03:00N 55°45' E 012°42'3 5.4
2017-Jun-21 02:30N 55°43' E 012°41'3 5.1
2017-Jun-21 02:00N 55°40' E 012°42'2 4.9
2017-Jun-21 01:30N 55°38' E 012°42'2 4.9
2017-Jun-21 01:00N 55°35' E 012°42'3 5.0
2017-Jun-21 00:30N 55°33' E 012°43'2 4.7
2017-Jun-21 00:00N 55°31' E 012°42'2 4.6
2017-Jun-20 23:30N 55°28' E 012°42'2 4.4
2017-Jun-20 23:00N 55°26' E 012°42'2 4.8
2017-Jun-20 22:30N 55°24' E 012°41'3 5.4
2017-Jun-20 22:00N 55°21' E 012°41'2 4.3
2017-Jun-20 21:29N 55°19' E 012°42'2 3.9
2017-Jun-20 20:59N 55°18' E 012°45'2 4.3
2017-Jun-20 20:30N 55°17' E 012°48'2 3.8
2017-Jun-20 20:00N 55°16' E 012°51'2 4.3
2017-Jun-20 19:31N 55°15' E 012°55'2 4.7
2017-Jun-20 18:59N 55°14' E 012°59'2 5.1
2017-Jun-20 18:30N 55°13' E 013°02'2 5.0
2017-Jun-20 18:00N 55°12' E 013°07'2 4.6
2017-Jun-20 17:30N 55°11' E 013°10'2 4.1
2017-Jun-20 17:00N 55°11' E 013°13'2 4.4
2017-Jun-20 16:29N 55°09' E 013°17'7 4.6
2017-Jun-20 14:56N 55°06' E 013°28'6 4.5
2017-Jun-20 13:30N 55°03' E 013°38'3 3.8
2017-Jun-20 12:41N 55°01' E 013°42'1 3.1
2017-Jun-20 12:28N 55°01' E 013°43'1 2.9
2017-Jun-20 12:00N 54°60' E 013°44'1 2.8
2017-Jun-20 11:31N 54°59' E 013°46'2 2.7
2017-Jun-20 10:56N 54°57' E 013°47'1 3.2
2017-Jun-20 10:30N 54°56' E 013°48'2 3.6
2017-Jun-20 09:55N 54°55' E 013°51'2 3.9
2017-Jun-20 09:28N 54°54' E 013°53'2 3.7
2017-Jun-20 08:59N 54°54' E 013°57'2 4.2
2017-Jun-20 08:30N 54°54' E 013°60'2 4.3
2017-Jun-20 08:00N 54°55' E 014°03'2 4.2
2017-Jun-20 07:30N 54°55' E 014°07'2 4.4
2017-Jun-20 07:01N 54°56' E 014°11'2 4.3
2017-Jun-20 06:30N 54°56' E 014°14'2 4.4
2017-Jun-20 06:00N 54°56' E 014°18'2 4.5
2017-Jun-20 05:31N 54°55' E 014°22'2 4.8
2017-Jun-20 04:59N 54°55' E 014°26'2 4.8
2017-Jun-20 04:30N 54°55' E 014°30'2 4.9
2017-Jun-20 04:00N 54°54' E 014°34'2 4.8
2017-Jun-20 03:30N 54°54' E 014°38'2 4.7
2017-Jun-20 03:00N 54°53' E 014°43'2 4.6
2017-Jun-20 02:31N 54°53' E 014°46'2 4.6
2017-Jun-20 02:00N 54°53' E 014°51'2 4.6
2017-Jun-20 01:30N 54°53' E 014°54'2 4.5
2017-Jun-20 00:59N 54°53' E 014°59'2 4.6
2017-Jun-20 00:30N 54°54' E 015°02'2 4.9
2017-Jun-20 00:00N 54°54' E 015°07'3 5.1
2017-Jun-19 23:30N 54°54' E 015°11'3 5.1
2017-Jun-19 23:00N 54°54' E 015°15'3 5.3
2017-Jun-19 22:30N 54°54' E 015°20'3 5.7
2017-Jun-19 22:00N 54°54' E 015°25'4 5.5
2017-Jun-19 21:18N 54°53' E 015°32'63 4.9
2017-Jun-19 08:16N 54°56' E 017°22'1 5.0
2017-Jun-19 08:00N 54°56' E 017°24'4 5.0
2017-Jun-19 07:15N 54°56' E 017°31'5 4.8
2017-Jun-19 06:08N 54°56' E 017°40'1 4.9
2017-Jun-19 06:00N 54°56' E 017°41'13 4.7
2017-Jun-19 03:12N 54°56' E 018°04'1 4.1
2017-Jun-19 02:54N 54°57' E 018°06'1 3.8
2017-Jun-19 02:30N 54°57' E 018°09'2 3.5
2017-Jun-19 01:58N 54°57' E 018°12'2 4.0
2017-Jun-19 01:30N 54°57' E 018°15'2 4.4
2017-Jun-19 01:00N 54°57' E 018°19'2 3.9
2017-Jun-19 00:30N 54°57' E 018°22'2 3.7
2017-Jun-19 00:00N 54°57' E 018°26'2 3.6
2017-Jun-18 23:30N 54°57' E 018°29'2 3.7
2017-Jun-18 23:00N 54°57' E 018°32'2 3.5
2017-Jun-18 22:30N 54°57' E 018°35'2 3.1
2017-Jun-18 22:00N 54°57' E 018°38'2 3.1
2017-Jun-18 21:30N 54°57' E 018°40'2 3.1
2017-Jun-18 21:00N 54°56' E 018°43'2 3.5
2017-Jun-18 20:30N 54°56' E 018°46'2 3.6
2017-Jun-18 20:00N 54°55' E 018°49'2 3.7
2017-Jun-18 19:31N 54°55' E 018°52'2 3.6
2017-Jun-18 19:00N 54°54' E 018°55'2 3.3
2017-Jun-18 18:30N 54°54' E 018°58'2 3.3
2017-Jun-18 18:00N 54°53' E 019°01'2 3.2
2017-Jun-18 17:30N 54°53' E 019°03'1 2.9
2017-Jun-18 17:00N 54°52' E 019°06'2 3.2
2017-Jun-18 16:29N 54°52' E 019°08'2 3.3
2017-Jun-18 16:00N 54°52' E 019°11'2 3.2
2017-Jun-18 15:31N 54°51' E 019°14'2 3.3
2017-Jun-18 15:01N 54°51' E 019°17'3 2.7
2017-Jun-18 14:00N 54°50' E 019°21'2 3.4
2017-Jun-18 13:30N 54°49' E 019°23'2 4.0
2017-Jun-18 12:59N 54°48' E 019°26'2 5.0
2017-Jun-18 12:30N 54°47' E 019°30'3 5.8
2017-Jun-18 12:00N 54°45' E 019°35'3 5.9
2017-Jun-18 11:30N 54°44' E 019°39'3 5.5
2017-Jun-18 11:01N 54°42' E 019°43'3 5.5
2017-Jun-18 10:30N 54°41' E 019°47'3 5.9
2017-Jun-18 10:00N 54°39' E 019°51'3 5.3
2017-Jun-18 09:24N 54°38' E 019°57'  

Dump ship's entire track history